• Join FlightAware (Why Join?)
  • Login
  • US Flag GB Flag 
02:20 EDT


 

Airport Tracker/Info


-or-


 

Live Flight TrackerFlight Track Log ✈ SWA2166 ✈ 10-Apr-2013 ✈ KMSY - KIND

Flight Track Log - Related Links

Times and Time Zones

All times are in EDT time to prevent confusion due to time zone crossing. See the SWA2166 flight status page for this flight to view local times or setup timezone preferences in your user account.

Time Position Orientation Groundspeed Altitude Reporting Facility
EDT Latitude Longitude Course Direction KTS MPH feet Rate Location/Type
08:04 29.9781 -90.2539 North 142 163 900  Level Houston Center
08:04 29.9678 -90.2589 203° Southwest 144 166 1,600 2,040 Climbing Houston Center
08:05 29.9439 -90.2681 198° South 179 206 2,600 2,160 Climbing Houston Center
08:06 29.9194 -90.3147 239° Southwest 218 251 5,000 2,280 Climbing Houston Center
08:07 29.9947 -90.3453 341° North 270 311 7,300 2,820 Climbing Houston Center
08:08 30.0742 -90.3758 342° North 294 338 10,900 3,120 Climbing Houston Center
08:09 30.1622 -90.4058 344° North 318 366 13,700 1,980 Climbing Houston Center
08:10 30.6453 -90.1374 North  Level Estimated
08:10 30.2583 -90.4392 343° North 347 399 15,000  Level Houston Center
08:11 30.3586 -90.4731 344° North 363 418 16,800 2,040 Climbing Houston Center
08:12 30.4647 -90.5125 342° North 386 444 19,300 2,520 Climbing Houston Center
08:13 30.5744 -90.5497 344° North 403 464 22,000 2,100 Climbing Houston Center
08:14 30.6875 -90.5886 344° North 420 483 23,700 1,740 Climbing Houston Center
08:15 30.8122 -90.5828 North 443 510 25,600 1,860 Climbing Houston Center
08:16 30.9653 -90.5656 North 455 524 27,600 1,740 Climbing Houston Center
08:17 31.0986 -90.5511 North 473 544 29,200 1,440 Climbing Houston Center
08:18 31.2336 -90.5356 North 483 556 30,600 1,740 Climbing Houston Center
08:19 31.3669 -90.5206 North 483 556 32,800 2,160 Climbing Houston Center
08:20 31.4958 -90.5053 North 469 540 35,100 2,040 Climbing Houston Center
08:21 31.6217 -90.4917 North 457 526 37,000 1,680 Climbing Houston Center
08:22 31.7417 -90.4775 North 438 504 38,600 960 Climbing Houston Center
08:23 31.8603 -90.4642 North 430 495 39,000 180 Climbing Houston Center
08:24 31.9789 -90.4503 North 432 497 39,000  Level Memphis Center
08:25 32.1000 -90.4358 North 432 497 39,000  Level Memphis Center
08:26 32.2211 -90.4236 North 432 497 39,000  Level Memphis Center
08:27 32.3400 -90.4089 North 432 497 39,000  Level Memphis Center
08:28 32.4611 -90.3942 North 432 497 39,000  Level Memphis Center
08:29 32.5822 -90.3819 North 432 497 39,000  Level Memphis Center
08:30 32.7053 -90.3672 North 432 497 39,000  Level Memphis Center
08:31 32.8264 -90.3522 North 432 497 39,000  Level Memphis Center
08:32 32.9494 -90.3425 North 437 503 39,000  Level Memphis Center
08:33 33.0728 -90.3275 North 442 509 39,000  Level Memphis Center
08:34 33.1958 -90.3100 North 442 509 39,000  Level Memphis Center
08:35 33.3169 -90.2975 North 442 509 39,000  Level Memphis Center
08:36 33.4400 -90.2825 North 442 509 39,000  Level Memphis Center
08:37 33.5611 -90.2600 North 442 509 39,000  Level Memphis Center
08:38 33.6822 -90.2375 North 442 509 39,000  Level Memphis Center
08:39 33.8053 -90.2172 North 442 509 39,000  Level Memphis Center
08:40 33.9117 -90.1969 North 448 516 39,000  Level Memphis Center
08:41 34.0369 -90.1717 North 448 516 39,000  Level Memphis Center
08:42 34.1600 -90.1489 North 443 510 39,000  Level Memphis Center
08:43 34.2956 -90.1233 North 448 516 39,000  Level Memphis Center
08:44 34.4208 -90.1003 North 448 516 39,000  Level Memphis Center
08:45 34.5458 -90.0772 North 448 516 39,000  Level Memphis Center
08:46 34.6731 -90.0542 North 448 516 39,000  Level Memphis Center
08:47 34.8003 -90.0333 North 453 521 39,000  Level Memphis Center
08:48 34.9339 -90.0075 North 473 544 39,000  Level Memphis Center
08:49 35.0486 -89.9792 11° North 473 544 39,000  Level Memphis Center
08:50 35.1756 -89.9481 11° North 463 533 39,000  Level Memphis Center
08:51 35.3028 -89.9169 11° North 468 539 39,000  Level Memphis Center
08:52 35.4319 -89.8856 11° North 468 539 39,000  Level Memphis Center
08:53 35.5717 -89.8542 10° North 463 533 39,000  Level Memphis Center
08:54 35.6944 -89.8253 11° North 458 527 39,000  Level Memphis Center
08:55 35.8133 -89.7989 10° North 444 511 39,000  Level Memphis Center
08:56 35.9383 -89.7700 11° North 444 511 39,000  Level Memphis Center
08:57 36.0653 -89.7408 11° North 455 524 39,000  Level Memphis Center
08:58 36.1881 -89.7114 11° North 450 518 39,000  Level Memphis Center
08:59 36.3131 -89.6847 10° North 450 518 39,000  Level Memphis Center
09:00 36.4381 -89.6553 11° North 450 518 39,000  Level Memphis Center
09:01 36.5628 -89.6258 11° North 450 518 39,000  Level Memphis Center
09:02 36.6711 -89.5964 12° North 450 518 39,000  Level Memphis Center
09:04 36.9125 -89.5394 11° North 450 518 39,000  Level Memphis Center
09:06 37.1728 -89.4703 12° North 439 505 39,000  Level Kansas City Center
09:07 37.2914 -89.4419 11° North 435 501 39,000  Level Kansas City Center
09:08 37.4097 -89.4128 11° North 434 499 39,000  Level Kansas City Center
09:09 37.5303 -89.3819 11° North 438 504 39,000  Level Kansas City Center
09:10 37.6506 -89.3581 North 438 504 39,000  Level Kansas City Center
09:12 37.7697 -89.3383 North 434 499 39,000  Level Kansas City Center
09:13 37.9094 -89.3106 North 441 507 39,000  Level Kansas City Center
09:14 38.0400 -89.2856 North 442 509 39,000  Level Kansas City Center
09:15 38.1619 -89.2622 North 444 511 39,000  Level Kansas City Center
09:16 38.2833 -89.2378 North 443 510 39,000  Level Kansas City Center
09:17 38.4056 -89.2144 North 445 512 39,000  Level Kansas City Center
09:18 38.5347 -89.1897 North 439 505 39,000  Level Kansas City Center
09:19 38.6550 -89.1667 North 438 504 39,000  Level Kansas City Center
09:20 38.7744 -89.1425 North 437 503 39,000 -180 Level Kansas City Center
09:21 38.9050 -89.1175 North 440 506 38,700 -660 Descending Kansas City Center
09:22 39.0261 -89.0936 North 442 509 37,700 -960 Descending Kansas City Center
09:23 39.1489 -89.0703 North 444 511 36,800 -900 Descending Kansas City Center
09:24 39.2572 -89.0489 North 448 516 35,900 -960 Descending Kansas City Center
09:25 39.3817 -89.0233 North 452 520 34,900 -1,080 Descending Kansas City Center
09:26 39.5281 -88.9936 North 454 522 33,800 -1,080 Descending Kansas City Center
09:27 39.6522 -88.9692 North 453 521 32,700 -1,140 Descending Kansas City Center
09:28 39.7769 -88.9439 North 453 521 31,500 -1,800 Descending Kansas City Center
09:29 39.9017 -88.9186 North 455 524 29,100 -1,560 Descending Kansas City Center
09:30 40.0225 -88.8944 North 446 513 28,400 -840 Descending Kansas City Center
09:31 40.1419 -88.8708 North 437 503 27,400 -1,020 Descending Kansas City Center
09:32 40.2619 -88.8475 North 438 504 26,400 -1,080 Descending Kansas City Center
09:33 40.4042 -88.8186 North 434 499 25,200 -1,200 Descending Kansas City Center
09:34 40.5222 -88.7939 North 433 498 24,000 -1,080 Descending Kansas City Center
09:35 40.6350 -88.7706 North 420 483 23,000 -480 Descending Kansas City Center
09:36 40.7406 -88.7494 North 360 414 23,000  Level Chicago Center
09:37 40.8450 -88.7283 North 320 368 23,000  Level Chicago Center
09:38 40.9028 -88.7889 322° Northwest 278 320 23,000  Level Chicago Center
09:39 40.8892 -88.8653 257° West 245 282 23,000 -300 Level Chicago Center
09:40 40.8300 -88.9175 214° Southwest 252 290 22,500 -780 Descending Chicago Center
09:41 40.7708 -88.9669 212° Southwest 252 290 21,500 -1,080 Descending Chicago Center
09:42 40.6900 -88.9531 173° South 270 311 20,300 -780 Descending Chicago Center
09:43 40.6611 -88.8467 110° East 305 351 20,000 -180 Descending Chicago Center
09:44 40.6431 -88.7219 101° East 335 386 20,000  Level Chicago Center
09:45 40.5850 -88.6336 131° Southeast 321 369 20,000  Level Chicago Center
09:46 40.5131 -88.5556 140° Southeast 334 384 20,000  Level Chicago Center
09:48 40.4531 -88.4589 129° Southeast 349 402 20,000  Level Chicago Center
09:49 40.4000 -88.3575 124° Southeast 343 395 20,000  Level Chicago Center
09:50 40.3597 -88.2425 115° Southeast 351 404 20,000  Level Chicago Center
09:51 40.3317 -88.0886 103° East 364 419 20,000  Level Chicago Center
09:52 40.2972 -87.8414 100° East 371 427 20,000  Level Indianapolis Center
09:53 40.2769 -87.6919 100° East 388 447 20,000  Level Indianapolis Center
09:54 40.2572 -87.5406 100° East 401 461 20,000  Level Indianapolis Center
09:55 40.2539 -87.5139 99° East 412 474 20,000 -120 Level Chicago Center
09:56 40.2347 -87.3694 100° East 407 468 19,900 -1,140 Descending Chicago Center
09:57 40.2108 -87.1964 100° East 404 465 17,700 -2,100 Descending Chicago Center
09:58 40.1911 -87.0597 101° East 389 448 15,600 -2,040 Descending Chicago Center
09:59 40.1719 -86.9250 101° East 380 437 13,600 -1,320 Descending Chicago Center
10:00 40.1200 -86.8211 123° Southeast 357 411 13,000 -360 Descending Chicago Center
10:01 40.0597 -86.7347 132° Southeast 356 410 13,000 -180 Level Indianapolis Center
10:02 39.9944 -86.6497 135° Southeast 346 398 12,700 -540 Descending Indianapolis Center
10:03 39.9411 -86.5783 134° Southeast 315 362 12,000 -900 Descending Indianapolis Center
10:04 39.8917 -86.5167 136° Southeast 282 325 10,900 -1,200 Descending Indianapolis Center
10:05 39.8406 -86.4522 136° Southeast 265 305 9,600 -1,080 Descending Indianapolis Center
10:06 39.7908 -86.3872 135° Southeast 259 298 8,700 -1,080 Descending Indianapolis Center
10:06 39.7833 -86.3500 105° East 246 283 8,200 -1,200 Descending Indianapolis TRACON
10:07 39.8167 -86.2833 57° Northeast 252 290 7,100 -960 Descending Indianapolis TRACON
10:08 39.8667 -86.2167 46° Northeast 255 293 6,300 -900 Descending Indianapolis TRACON
10:09 39.9167 -86.1500 46° Northeast 254 292 5,400 -660 Descending Indianapolis TRACON
10:10 39.9667 -86.0833 46° Northeast 250 288 5,000 -180 Descending Indianapolis TRACON
10:11 40.0000 -86.0167 57° Northeast 254 292 5,100  Climbing Indianapolis TRACON
10:12 39.9667 -85.9833 143° Southeast 183 211 5,100 -240 Level Indianapolis TRACON
10:13 39.9333 -86.0333 229° Southwest 160 184 4,700 -480 Descending Indianapolis TRACON
10:14 39.9000 -86.0667 217° Southwest 166 191 4,200 -540 Descending Indianapolis TRACON